Gesamt
Hay Airport (Hay, New South Wales) HXX Wetter
|
Hay, New South Wales (HXX / YHAY)
Klarer Himmel
Leichter Wind |
|
7 °C |
There is no TAF data available at HXX or any nearby airports.
Kürzlicher METAR-Verlauf für HXX
| Date | Time (AEST) | Flight Rules | Wind Dir. | Speed | Type | Height AGL (ft) | Visibility | Temp (°C) | Temp (°F) | Dew Point (°C) | Dew Point (°F) | Rel. Humid. | Pressure | Density Altitude | Remarks |
|---|---|---|---|---|---|---|---|---|---|---|---|---|---|---|---|
| 09-Mai | 03:00 | n/a | 240° | 6 kt | Missing | 7° | 44° | 7° | 44° | 100% | 1026 mb | -1.033 ft | |||
| 09-Mai | 02:00 | n/a | 220° | 6 kt | Missing | 8° | 46° | 8° | 46° | 100% | 1025 mb | -883 ft | |||
| 09-Mai | 01:00 | n/a | 230° | 7 kt | Missing | 9° | 48° | 9° | 48° | 100% | 1025 mb | -763 ft | |||
| 09-Mai | 00:00 | n/a | 240° | 7 kt | Missing | 9° | 48° | 9° | 48° | 100% | 1025 mb | -763 ft | |||
| 08-Mai | 23:00 | n/a | 230° | 8 kt | Missing | 10° | 50° | 10° | 50° | 100% | 1026 mb | -673 ft | |||
| 08-Mai | 22:00 | n/a | 240° | 7 kt | Missing | 11° | 51° | 9° | 48° | 87% | 1026 mb | -553 ft | |||
| 08-Mai | 21:00 | n/a | 260° | 9 kt | Missing | 12° | 53° | 9° | 48° | 82% | 1025 mb | -403 ft | |||
| 08-Mai | 20:00 | n/a | 250° | 9 kt | Missing | 12° | 53° | 9° | 48° | 82% | 1025 mb | -403 ft | |||
| 08-Mai | 19:00 | n/a | 260° | 9 kt | Missing | 14° | 57° | 9° | 48° | 72% | 1025 mb | -163 ft | |||
| 08-Mai | 18:00 | n/a | 250° | 8 kt | Missing | 15° | 59° | 8° | 46° | 63% | 1024 mb | -14 ft | |||
| 08-Mai | 17:00 | n/a | 250° | 13 kt | Missing | 17° | 62° | 9° | 48° | 59% | 1024 mb | 226 ft | |||
| 08-Mai | 16:00 | n/a | 230° | 15 kt | Missing | 18° | 64° | 9° | 48° | 56% | 1024 mb | 346 ft | |||
| 08-Mai | 15:00 | n/a | 220° | 16 kt | Missing | 18° | 64° | 9° | 48° | 56% | 1024 mb | 346 ft | |||
| 08-Mai | 14:00 | n/a | 230° | 14 kt | Missing | 17° | 62° | 10° | 50° | 63% | 1024 mb | 226 ft | |||
| 08-Mai | 13:00 | n/a | 240° | 15 kt | Missing | 18° | 64° | 10° | 50° | 59% | 1024 mb | 346 ft | |||
| 08-Mai | 12:00 | n/a | 250° | 15 kt | Missing | 16° | 60° | 10° | 50° | 68% | 1025 mb | 77 ft | |||
| 08-Mai | 11:00 | n/a | 240° | 17 kt | Missing | 15° | 59° | 10° | 50° | 72% | 1026 mb | -73 ft | |||
| 08-Mai | 10:00 | n/a | 240° | 16 kt | Missing | 14° | 57° | 10° | 50° | 77% | 1026 mb | -193 ft | |||
| 08-Mai | 09:00 | n/a | 270° | 13 kt | Missing | 12° | 53° | 10° | 50° | 88% | 1026 mb | -433 ft | |||
| 08-Mai | 08:00 | n/a | 240° | 14 kt | Missing | 11° | 51° | 10° | 50° | 94% | 1026 mb | -553 ft | |||
| 08-Mai | 07:00 | n/a | 250° | 13 kt | Missing | 10° | 50° | 8° | 46° | 87% | 1025 mb | -643 ft | |||
| 08-Mai | 06:00 | n/a | 280° | 13 kt | Missing | 10° | 50° | 8° | 46° | 87% | 1024 mb | -614 ft | |||
| 08-Mai | 05:00 | n/a | 270° | 11 kt | Missing | 9° | 48° | 7° | 44° | 87% | 1024 mb | -734 ft | |||
| 08-Mai | 04:00 | n/a | 270° | 10 kt | Missing | 9° | 48° | 6° | 42° | 81% | 1025 mb | -763 ft |
Anmelden
| Ihr Browser wird nicht unterstützt. aktualisieren Sie Ihren Browser |
